| time (UTC) | temp F | wind direction | speed MPH | gust MPH | rain 1hr in | rain 24hr in | rain mn in | humidity % | barometer mb |
| 20260502123017 | 46 | 0.0 | 4.0 | 0.00 | 0.00 | 0.00 | 40 | 1015.0 | |
| 20260502113036 | 52 | 270 | 3.0 | 14.0 | 0.00 | 0.00 | 0.00 | 33 | 1016.2 |
| 20260502110017 | 51 | 270 | 2.0 | 8.0 | 0.00 | 0.00 | 0.00 | 35 | 1016.5 |
| 20260502103017 | 50 | 270 | 2.0 | 10.0 | 0.00 | 0.00 | 0.00 | 37 | 1015.8 |
| 20260502070016 | 49 | 180 | 2.0 | 7.0 | 0.00 | 0.00 | 0.00 | 40 | 1016.5 |
| 20260502063016 | 49 | 180 | 2.0 | 7.0 | 0.00 | 0.00 | 0.00 | 42 | 1016.0 |
| 20260502060136 | 49 | 180 | 3.0 | 8.0 | 0.00 | 0.00 | 0.00 | 42 | 1016.6 |
| 20260502053015 | 49 | 158 | 5.0 | 12.0 | 0.00 | 0.00 | 0.00 | 44 | 1016.4 |
| 20260502050016 | 50 | 158 | 5.0 | 13.0 | 0.00 | 0.00 | 0.00 | 42 | 1016.5 |
| 20260502043015 | 48 | 0.0 | 4.0 | 0.00 | 0.00 | 0.00 | 43 | 1016.3 | |
| 20260502040035 | 49 | 0.0 | 3.0 | 0.00 | 0.00 | 0.00 | 41 | 1015.9 | |
| 20260502033015 | 52 | 23 | 1.0 | 3.0 | 0.00 | 0.00 | 0.00 | 40 | 1015.8 |
| 20260502030015 | 55 | 23 | 1.0 | 3.0 | 0.00 | 0.00 | 0.00 | 35 | 1015.9 |
| 20260502023017 | 60 | 0.0 | 2.0 | 0.00 | 0.00 | 0.00 | 27 | 1015.5 | |
| 20260502020037 | 63 | 0 | 1.0 | 5.0 | 0.00 | 0.00 | 0.00 | 24 | 1015.9 |
| 20260502013017 | 64 | 0 | 2.0 | 7.0 | 0.00 | 0.00 | 0.00 | 23 | 1015.5 |
| 20260502010017 | 65 | 45 | 3.0 | 10.0 | 0.00 | 0.00 | 0.00 | 22 | 1015.5 |
| 20260502003017 | 65 | 45 | 3.0 | 10.0 | 0.00 | 0.00 | 0.00 | 22 | 1015.4 |
| 20260502000017 | 66 | 90 | 3.0 | 9.0 | 0.00 | 0.00 | 0.00 | 22 | 1015.5 |
| 20260501233037 | 66 | 45 | 3.0 | 11.0 | 0.00 | 0.00 | 0.00 | 22 | 1015.6 |
| 20260501230037 | 67 | 45 | 2.0 | 9.0 | 0.00 | 0.00 | 0.00 | 22 | 1015.9 |
| 20260501223017 | 66 | 45 | 4.0 | 11.0 | 0.00 | 0.00 | 0.00 | 22 | 1015.3 |
| 20260501220036 | 65 | 23 | 4.0 | 11.0 | 0.00 | 0.00 | 0.00 | 22 | 1015.4 |
| 20260501213017 | 65 | 45 | 4.0 | 12.0 | 0.00 | 0.00 | 0.00 | 22 | 1016.2 |
| 20260501210016 | 66 | 158 | 3.0 | 8.0 | 0.00 | 0.00 | 0.00 | 23 | 1017.1 |
| 20260501203036 | 65 | 45 | 3.0 | 8.0 | 0.00 | 0.00 | 0.00 | 24 | 1016.8 |
| 20260501200016 | 64 | 248 | 3.0 | 12.0 | 0.00 | 0.00 | 0.00 | 24 | 1016.9 |
| 20260501193016 | 62 | 113 | 3.0 | 12.0 | 0.00 | 0.00 | 0.00 | 25 | 1016.9 |
| 20260501190016 | 63 | 225 | 3.0 | 9.0 | 0.00 | 0.00 | 0.00 | 25 | 1017.2 |
| 20260501183016 | 60 | 338 | 4.0 | 11.0 | 0.00 | 0.00 | 0.00 | 27 | 1017.0 |
| 20260501180016 | 62 | 135 | 2.0 | 7.0 | 0.00 | 0.00 | 0.00 | 25 | 1017.6 |
| 20260501173016 | 60 | 68 | 3.0 | 9.0 | 0.00 | 0.00 | 0.00 | 26 | 1017.7 |
| 20260501170015 | 60 | 248 | 2.0 | 8.0 | 0.00 | 0.00 | 0.00 | 27 | 1018.3 |
| 20260501163015 | 58 | 270 | 3.0 | 10.0 | 0.00 | 0.00 | 0.00 | 27 | 1017.8 |
| 20260501160015 | 56 | 270 | 5.0 | 11.0 | 0.00 | 0.00 | 0.00 | 29 | 1018.0 |
| 20260501153016 | 54 | 248 | 4.0 | 13.0 | 0.00 | 0.00 | 0.00 | 31 | 1018.1 |